sensor_id;sensor_type;location;lat;lon;timestamp;temperature;humidity
23271;DHT22;11804;51.118;17.058;2023-03-31T00:00:56;10.70;99.90
23271;DHT22;11804;51.118;17.058;2023-03-31T00:03:26;10.60;99.90
23271;DHT22;11804;51.118;17.058;2023-03-31T00:05:57;10.60;99.90
23271;DHT22;11804;51.118;17.058;2023-03-31T00:08:28;10.60;99.90
23271;DHT22;11804;51.118;17.058;2023-03-31T00:10:59;10.50;99.90
23271;DHT22;11804;51.118;17.058;2023-03-31T00:13:30;10.50;99.90
23271;DHT22;11804;51.118;17.058;2023-03-31T00:16:01;10.50;99.90
23271;DHT22;11804;51.118;17.058;2023-03-31T00:18:30;10.40;99.90
23271;DHT22;11804;51.118;17.058;2023-03-31T00:21:14;10.40;99.90
23271;DHT22;11804;51.118;17.058;2023-03-31T00:23:39;10.30;99.90
23271;DHT22;11804;51.118;17.058;2023-03-31T00:26:07;10.30;99.90
23271;DHT22;11804;51.118;17.058;2023-03-31T00:28:34;10.30;99.90
23271;DHT22;11804;51.118;17.058;2023-03-31T00:31:03;10.30;99.90
23271;DHT22;11804;51.118;17.058;2023-03-31T00:33:30;10.20;99.90
23271;DHT22;11804;51.118;17.058;2023-03-31T00:35:58;10.20;99.90
23271;DHT22;11804;51.118;17.058;2023-03-31T00:38:28;10.20;99.90
23271;DHT22;11804;51.118;17.058;2023-03-31T00:40:57;10.20;99.90
23271;DHT22;11804;51.118;17.058;2023-03-31T00:43:30;10.20;99.90
23271;DHT22;11804;51.118;17.058;2023-03-31T00:46:17;10.10;99.90
23271;DHT22;11804;51.118;17.058;2023-03-31T00:48:51;10.10;99.90
23271;DHT22;11804;51.118;17.058;2023-03-31T00:51:20;10.00;99.90
23271;DHT22;11804;51.118;17.058;2023-03-31T00:53:55;10.00;99.90
23271;DHT22;11804;51.118;17.058;2023-03-31T00:56:25;10.00;99.90
23271;DHT22;11804;51.118;17.058;2023-03-31T00:58:56;10.00;99.90
23271;DHT22;11804;51.118;17.058;2023-03-31T01:01:25;10.00;99.90
23271;DHT22;11804;51.118;17.058;2023-03-31T01:03:53;10.00;99.90
23271;DHT22;11804;51.118;17.058;2023-03-31T01:06:21;9.90;99.90
23271;DHT22;11804;51.118;17.058;2023-03-31T01:08:51;10.00;99.90
23271;DHT22;11804;51.118;17.058;2023-03-31T01:11:20;9.90;99.90
23271;DHT22;11804;51.118;17.058;2023-03-31T01:13:51;9.90;99.90
23271;DHT22;11804;51.118;17.058;2023-03-31T01:16:21;9.90;99.90
23271;DHT22;11804;51.118;17.058;2023-03-31T01:18:50;9.90;99.90
23271;DHT22;11804;51.118;17.058;2023-03-31T01:24:23;9.90;99.90
23271;DHT22;11804;51.118;17.058;2023-03-31T01:27:09;9.90;99.90
23271;DHT22;11804;51.118;17.058;2023-03-31T01:41:32;9.90;99.90
23271;DHT22;11804;51.118;17.058;2023-03-31T01:52:10;9.80;99.90
23271;DHT22;11804;51.118;17.058;2023-03-31T02:00:10;9.70;99.90
23271;DHT22;11804;51.118;17.058;2023-03-31T02:05:23;9.60;99.90
23271;DHT22;11804;51.118;17.058;2023-03-31T02:07:53;9.60;99.90
23271;DHT22;11804;51.118;17.058;2023-03-31T02:10:17;9.60;99.90
23271;DHT22;11804;51.118;17.058;2023-03-31T02:12:47;9.60;99.90
23271;DHT22;11804;51.118;17.058;2023-03-31T02:15:21;9.60;99.90
23271;DHT22;11804;51.118;17.058;2023-03-31T02:17:50;9.60;99.90
23271;DHT22;11804;51.118;17.058;2023-03-31T02:20:21;9.50;99.90
23271;DHT22;11804;51.118;17.058;2023-03-31T02:22:51;9.50;99.90
23271;DHT22;11804;51.118;17.058;2023-03-31T02:25:30;9.50;99.90
23271;DHT22;11804;51.118;17.058;2023-03-31T02:27:58;9.50;99.90
23271;DHT22;11804;51.118;17.058;2023-03-31T02:30:29;9.50;99.90
23271;DHT22;11804;51.118;17.058;2023-03-31T02:32:56;9.50;99.90
23271;DHT22;11804;51.118;17.058;2023-03-31T02:35:25;9.50;99.90
23271;DHT22;11804;51.118;17.058;2023-03-31T02:37:53;9.50;99.90
23271;DHT22;11804;51.118;17.058;2023-03-31T02:40:22;9.40;99.90
23271;DHT22;11804;51.118;17.058;2023-03-31T02:42:51;9.40;99.90
23271;DHT22;11804;51.118;17.058;2023-03-31T02:45:42;9.40;99.90
23271;DHT22;11804;51.118;17.058;2023-03-31T02:48:18;9.40;99.90
23271;DHT22;11804;51.118;17.058;2023-03-31T02:56:35;9.30;99.90
23271;DHT22;11804;51.118;17.058;2023-03-31T03:13:21;9.20;99.90
23271;DHT22;11804;51.118;17.058;2023-03-31T03:15:33;9.20;99.90
23271;DHT22;11804;51.118;17.058;2023-03-31T03:17:47;9.20;99.90
23271;DHT22;11804;51.118;17.058;2023-03-31T03:20:17;9.20;99.90
23271;DHT22;11804;51.118;17.058;2023-03-31T03:22:45;9.10;99.90
23271;DHT22;11804;51.118;17.058;2023-03-31T03:25:14;9.10;99.90
23271;DHT22;11804;51.118;17.058;2023-03-31T03:27:46;9.10;99.90
23271;DHT22;11804;51.118;17.058;2023-03-31T03:30:14;9.10;99.90
23271;DHT22;11804;51.118;17.058;2023-03-31T03:32:42;9.20;99.90
23271;DHT22;11804;51.118;17.058;2023-03-31T03:35:10;9.10;99.90
23271;DHT22;11804;51.118;17.058;2023-03-31T03:37:38;9.10;99.90
23271;DHT22;11804;51.118;17.058;2023-03-31T03:40:07;9.10;99.90
23271;DHT22;11804;51.118;17.058;2023-03-31T03:42:36;9.10;99.90
23271;DHT22;11804;51.118;17.058;2023-03-31T03:45:05;9.10;99.90
23271;DHT22;11804;51.118;17.058;2023-03-31T03:47:33;9.10;99.90
23271;DHT22;11804;51.118;17.058;2023-03-31T03:50:02;9.10;99.90
23271;DHT22;11804;51.118;17.058;2023-03-31T03:52:31;9.10;99.90
23271;DHT22;11804;51.118;17.058;2023-03-31T03:54:58;9.10;99.90
23271;DHT22;11804;51.118;17.058;2023-03-31T03:57:27;9.10;99.90
23271;DHT22;11804;51.118;17.058;2023-03-31T03:59:55;9.10;99.90
23271;DHT22;11804;51.118;17.058;2023-03-31T04:02:22;9.10;99.90
23271;DHT22;11804;51.118;17.058;2023-03-31T04:04:50;9.00;99.90
23271;DHT22;11804;51.118;17.058;2023-03-31T04:07:18;9.00;99.90
23271;DHT22;11804;51.118;17.058;2023-03-31T04:09:45;8.90;99.90
23271;DHT22;11804;51.118;17.058;2023-03-31T04:12:13;8.90;99.90
23271;DHT22;11804;51.118;17.058;2023-03-31T04:14:41;8.90;99.90
23271;DHT22;11804;51.118;17.058;2023-03-31T04:17:08;8.80;99.90
23271;DHT22;11804;51.118;17.058;2023-03-31T04:19:38;8.80;99.90
23271;DHT22;11804;51.118;17.058;2023-03-31T04:22:07;8.80;99.90
23271;DHT22;11804;51.118;17.058;2023-03-31T04:24:37;8.80;99.90
23271;DHT22;11804;51.118;17.058;2023-03-31T04:27:05;8.80;99.90
23271;DHT22;11804;51.118;17.058;2023-03-31T04:29:33;8.80;99.90
23271;DHT22;11804;51.118;17.058;2023-03-31T04:32:04;8.80;99.90
23271;DHT22;11804;51.118;17.058;2023-03-31T04:34:31;8.70;99.90
23271;DHT22;11804;51.118;17.058;2023-03-31T04:37:02;8.80;99.90
23271;DHT22;11804;51.118;17.058;2023-03-31T04:39:30;8.70;99.90
23271;DHT22;11804;51.118;17.058;2023-03-31T04:41:59;8.70;99.90
23271;DHT22;11804;51.118;17.058;2023-03-31T04:44:29;8.60;99.90
23271;DHT22;11804;51.118;17.058;2023-03-31T04:46:56;8.60;99.90
23271;DHT22;11804;51.118;17.058;2023-03-31T04:49:28;8.60;99.90
23271;DHT22;11804;51.118;17.058;2023-03-31T04:51:58;8.60;99.90
23271;DHT22;11804;51.118;17.058;2023-03-31T04:54:25;8.60;99.90
23271;DHT22;11804;51.118;17.058;2023-03-31T04:56:53;8.60;99.90
23271;DHT22;11804;51.118;17.058;2023-03-31T04:59:20;8.60;99.90
23271;DHT22;11804;51.118;17.058;2023-03-31T05:01:48;8.70;99.90
23271;DHT22;11804;51.118;17.058;2023-03-31T05:04:16;8.70;99.90
23271;DHT22;11804;51.118;17.058;2023-03-31T05:06:43;8.70;99.90
23271;DHT22;11804;51.118;17.058;2023-03-31T05:09:11;8.70;99.90
23271;DHT22;11804;51.118;17.058;2023-03-31T05:11:39;8.70;99.90
23271;DHT22;11804;51.118;17.058;2023-03-31T05:14:06;8.80;99.90
23271;DHT22;11804;51.118;17.058;2023-03-31T05:16:35;8.80;99.90
23271;DHT22;11804;51.118;17.058;2023-03-31T05:19:03;8.80;99.90
23271;DHT22;11804;51.118;17.058;2023-03-31T05:21:31;8.80;99.90
23271;DHT22;11804;51.118;17.058;2023-03-31T05:23:59;8.80;99.90
23271;DHT22;11804;51.118;17.058;2023-03-31T05:26:26;8.80;99.90
23271;DHT22;11804;51.118;17.058;2023-03-31T05:28:54;8.90;99.90
23271;DHT22;11804;51.118;17.058;2023-03-31T05:31:22;8.90;99.90
23271;DHT22;11804;51.118;17.058;2023-03-31T05:33:50;8.90;99.90
23271;DHT22;11804;51.118;17.058;2023-03-31T05:36:18;9.00;99.90
23271;DHT22;11804;51.118;17.058;2023-03-31T05:38:45;9.10;99.90
23271;DHT22;11804;51.118;17.058;2023-03-31T05:41:13;9.80;99.90
23271;DHT22;11804;51.118;17.058;2023-03-31T05:43:42;11.20;99.90
23271;DHT22;11804;51.118;17.058;2023-03-31T05:46:10;12.70;99.90
23271;DHT22;11804;51.118;17.058;2023-03-31T05:48:38;13.80;97.30
23271;DHT22;11804;51.118;17.058;2023-03-31T05:51:05;14.40;92.30
23271;DHT22;11804;51.118;17.058;2023-03-31T05:53:33;15.00;87.10
23271;DHT22;11804;51.118;17.058;2023-03-31T05:56:03;15.00;84.90
23271;DHT22;11804;51.118;17.058;2023-03-31T05:58:35;15.10;84.90
23271;DHT22;11804;51.118;17.058;2023-03-31T06:01:15;15.30;82.60
23271;DHT22;11804;51.118;17.058;2023-03-31T06:03:47;15.20;80.40
23271;DHT22;11804;51.118;17.058;2023-03-31T06:06:15;15.10;82.30
23271;DHT22;11804;51.118;17.058;2023-03-31T06:08:44;15.80;79.30
23271;DHT22;11804;51.118;17.058;2023-03-31T06:11:15;16.10;76.90
23271;DHT22;11804;51.118;17.058;2023-03-31T06:13:45;16.50;73.80
23271;DHT22;11804;51.118;17.058;2023-03-31T06:16:14;16.80;70.70
23271;DHT22;11804;51.118;17.058;2023-03-31T06:18:42;17.00;70.70
23271;DHT22;11804;51.118;17.058;2023-03-31T06:21:13;17.00;69.10
23271;DHT22;11804;51.118;17.058;2023-03-31T06:23:42;16.20;71.30
23271;DHT22;11804;51.118;17.058;2023-03-31T06:26:13;15.60;73.90
23271;DHT22;11804;51.118;17.058;2023-03-31T06:28:41;14.80;78.60
23271;DHT22;11804;51.118;17.058;2023-03-31T06:31:11;14.00;83.80
23271;DHT22;11804;51.118;17.058;2023-03-31T06:33:40;13.60;89.40
23271;DHT22;11804;51.118;17.058;2023-03-31T06:36:09;13.10;93.00
23271;DHT22;11804;51.118;17.058;2023-03-31T06:38:37;12.60;99.30
23271;DHT22;11804;51.118;17.058;2023-03-31T06:41:08;12.30;99.90
23271;DHT22;11804;51.118;17.058;2023-03-31T06:43:37;12.10;99.90
23271;DHT22;11804;51.118;17.058;2023-03-31T06:46:05;12.10;99.90
23271;DHT22;11804;51.118;17.058;2023-03-31T06:48:33;12.40;99.90
23271;DHT22;11804;51.118;17.058;2023-03-31T06:51:04;12.70;99.90
23271;DHT22;11804;51.118;17.058;2023-03-31T06:53:32;12.90;99.90
23271;DHT22;11804;51.118;17.058;2023-03-31T06:56:00;13.40;99.90
23271;DHT22;11804;51.118;17.058;2023-03-31T06:58:28;13.50;99.90
23271;DHT22;11804;51.118;17.058;2023-03-31T07:00:56;13.80;99.30
23271;DHT22;11804;51.118;17.058;2023-03-31T07:03:23;14.30;95.00
23271;DHT22;11804;51.118;17.058;2023-03-31T07:05:52;14.40;93.10
23271;DHT22;11804;51.118;17.058;2023-03-31T07:08:21;14.60;93.30
23271;DHT22;11804;51.118;17.058;2023-03-31T07:10:53;14.90;91.20
23271;DHT22;11804;51.118;17.058;2023-03-31T07:13:21;14.70;91.50
23271;DHT22;11804;51.118;17.058;2023-03-31T07:15:48;14.60;91.90
23271;DHT22;11804;51.118;17.058;2023-03-31T07:18:19;14.40;92.60
23271;DHT22;11804;51.118;17.058;2023-03-31T07:20:50;14.30;93.70
23271;DHT22;11804;51.118;17.058;2023-03-31T07:23:19;14.20;94.30
23271;DHT22;11804;51.118;17.058;2023-03-31T07:25:47;13.90;96.20
23271;DHT22;11804;51.118;17.058;2023-03-31T07:28:15;13.90;97.30
23271;DHT22;11804;51.118;17.058;2023-03-31T07:30:43;13.90;97.20
23271;DHT22;11804;51.118;17.058;2023-03-31T07:33:11;13.70;97.90
23271;DHT22;11804;51.118;17.058;2023-03-31T07:35:40;13.60;99.90
23271;DHT22;11804;51.118;17.058;2023-03-31T07:38:09;13.70;99.90
23271;DHT22;11804;51.118;17.058;2023-03-31T07:40:39;13.70;99.90
23271;DHT22;11804;51.118;17.058;2023-03-31T07:43:07;13.70;99.70
23271;DHT22;11804;51.118;17.058;2023-03-31T07:45:37;13.60;99.90
23271;DHT22;11804;51.118;17.058;2023-03-31T07:48:04;13.50;99.90
23271;DHT22;11804;51.118;17.058;2023-03-31T07:50:32;13.40;99.90
23271;DHT22;11804;51.118;17.058;2023-03-31T07:53:00;13.40;99.90
23271;DHT22;11804;51.118;17.058;2023-03-31T07:55:32;13.50;99.90
23271;DHT22;11804;51.118;17.058;2023-03-31T07:58:00;13.70;99.90
23271;DHT22;11804;51.118;17.058;2023-03-31T08:00:28;14.00;99.90
23271;DHT22;11804;51.118;17.058;2023-03-31T08:02:55;14.60;99.10
23271;DHT22;11804;51.118;17.058;2023-03-31T08:05:23;15.60;93.60
23271;DHT22;11804;51.118;17.058;2023-03-31T08:07:51;16.40;87.30
23271;DHT22;11804;51.118;17.058;2023-03-31T08:10:22;17.40;80.90
23271;DHT22;11804;51.118;17.058;2023-03-31T08:12:49;17.90;75.70
23271;DHT22;11804;51.118;17.058;2023-03-31T08:15:17;18.50;71.60
23271;DHT22;11804;51.118;17.058;2023-03-31T08:17:45;18.80;68.10
23271;DHT22;11804;51.118;17.058;2023-03-31T08:20:12;18.60;68.00
23271;DHT22;11804;51.118;17.058;2023-03-31T08:22:40;18.30;68.20
23271;DHT22;11804;51.118;17.058;2023-03-31T08:25:09;17.60;71.90
23271;DHT22;11804;51.118;17.058;2023-03-31T08:27:38;17.10;73.80
23271;DHT22;11804;51.118;17.058;2023-03-31T08:30:09;16.80;77.10
23271;DHT22;11804;51.118;17.058;2023-03-31T08:32:37;16.90;76.50
23271;DHT22;11804;51.118;17.058;2023-03-31T08:35:05;17.30;73.00
23271;DHT22;11804;51.118;17.058;2023-03-31T08:37:34;17.50;71.90
23271;DHT22;11804;51.118;17.058;2023-03-31T08:40:02;17.70;70.20
23271;DHT22;11804;51.118;17.058;2023-03-31T08:42:38;17.60;71.20
23271;DHT22;11804;51.118;17.058;2023-03-31T08:45:18;17.40;72.40
23271;DHT22;11804;51.118;17.058;2023-03-31T08:47:47;17.00;74.50
23271;DHT22;11804;51.118;17.058;2023-03-31T08:50:20;16.70;76.60
23271;DHT22;11804;51.118;17.058;2023-03-31T08:53:19;16.50;78.00
23271;DHT22;11804;51.118;17.058;2023-03-31T08:55:55;16.20;79.20
23271;DHT22;11804;51.118;17.058;2023-03-31T08:58:45;16.50;79.40
23271;DHT22;11804;51.118;17.058;2023-03-31T09:04:19;16.50;80.00
23271;DHT22;11804;51.118;17.058;2023-03-31T09:07:06;16.60;80.20
23271;DHT22;11804;51.118;17.058;2023-03-31T09:18:02;17.30;75.30
23271;DHT22;11804;51.118;17.058;2023-03-31T09:20:33;17.30;75.90
23271;DHT22;11804;51.118;17.058;2023-03-31T09:23:20;17.10;75.60
23271;DHT22;11804;51.118;17.058;2023-03-31T09:25:44;17.70;74.10
23271;DHT22;11804;51.118;17.058;2023-03-31T09:28:30;18.40;70.00
23271;DHT22;11804;51.118;17.058;2023-03-31T09:31:10;18.40;68.80
23271;DHT22;11804;51.118;17.058;2023-03-31T09:33:33;17.60;70.70
23271;DHT22;11804;51.118;17.058;2023-03-31T09:36:07;17.20;73.90
23271;DHT22;11804;51.118;17.058;2023-03-31T09:38:33;17.30;73.60
23271;DHT22;11804;51.118;17.058;2023-03-31T09:41:01;17.20;74.10
23271;DHT22;11804;51.118;17.058;2023-03-31T09:43:32;17.10;73.40
23271;DHT22;11804;51.118;17.058;2023-03-31T09:46:20;17.10;72.90
23271;DHT22;11804;51.118;17.058;2023-03-31T09:48:53;16.90;73.50
23271;DHT22;11804;51.118;17.058;2023-03-31T09:51:23;16.50;75.10
23271;DHT22;11804;51.118;17.058;2023-03-31T09:54:04;16.40;76.60
23271;DHT22;11804;51.118;17.058;2023-03-31T09:56:45;16.40;77.70
23271;DHT22;11804;51.118;17.058;2023-03-31T09:59:23;16.00;79.80
23271;DHT22;11804;51.118;17.058;2023-03-31T10:01:52;15.80;81.30
23271;DHT22;11804;51.118;17.058;2023-03-31T10:04:26;15.70;82.40
23271;DHT22;11804;51.118;17.058;2023-03-31T10:06:55;15.50;83.70
23271;DHT22;11804;51.118;17.058;2023-03-31T10:09:28;15.40;85.20
23271;DHT22;11804;51.118;17.058;2023-03-31T10:12:14;15.50;86.10
23271;DHT22;11804;51.118;17.058;2023-03-31T10:14:45;15.50;86.50
23271;DHT22;11804;51.118;17.058;2023-03-31T10:17:16;15.60;86.10
23271;DHT22;11804;51.118;17.058;2023-03-31T10:24:52;15.80;85.70
23271;DHT22;11804;51.118;17.058;2023-03-31T10:29:56;15.90;82.30
23271;DHT22;11804;51.118;17.058;2023-03-31T10:32:26;15.80;83.90
23271;DHT22;11804;51.118;17.058;2023-03-31T10:34:56;15.70;84.90
23271;DHT22;11804;51.118;17.058;2023-03-31T10:37:27;15.70;85.00
23271;DHT22;11804;51.118;17.058;2023-03-31T10:39:59;15.70;84.90
23271;DHT22;11804;51.118;17.058;2023-03-31T10:42:28;15.50;85.80
23271;DHT22;11804;51.118;17.058;2023-03-31T10:45:58;15.50;84.70
23271;DHT22;11804;51.118;17.058;2023-03-31T10:47:41;15.50;83.90
23271;DHT22;11804;51.118;17.058;2023-03-31T10:50:14;15.40;84.30
23271;DHT22;11804;51.118;17.058;2023-03-31T10:52:46;15.40;84.00
23271;DHT22;11804;51.118;17.058;2023-03-31T10:55:21;15.30;84.50
23271;DHT22;11804;51.118;17.058;2023-03-31T10:57:57;15.30;85.00
23271;DHT22;11804;51.118;17.058;2023-03-31T11:00:27;15.40;84.90
23271;DHT22;11804;51.118;17.058;2023-03-31T11:08:35;15.60;83.30
23271;DHT22;11804;51.118;17.058;2023-03-31T11:11:07;15.80;83.40
23271;DHT22;11804;51.118;17.058;2023-03-31T11:13:43;16.30;81.50
23271;DHT22;11804;51.118;17.058;2023-03-31T11:16:26;16.70;77.30
23271;DHT22;11804;51.118;17.058;2023-03-31T11:21:47;17.60;76.10
23271;DHT22;11804;51.118;17.058;2023-03-31T11:24:51;17.70;72.50
23271;DHT22;11804;51.118;17.058;2023-03-31T11:32:44;16.50;75.40
23271;DHT22;11804;51.118;17.058;2023-03-31T11:35:22;16.60;75.50
23271;DHT22;11804;51.118;17.058;2023-03-31T11:38:06;16.60;75.60
23271;DHT22;11804;51.118;17.058;2023-03-31T11:40:34;16.50;76.40
23271;DHT22;11804;51.118;17.058;2023-03-31T11:45:46;16.50;76.60
23271;DHT22;11804;51.118;17.058;2023-03-31T11:48:34;16.30;77.30
23271;DHT22;11804;51.118;17.058;2023-03-31T11:50:59;16.10;78.20
23271;DHT22;11804;51.118;17.058;2023-03-31T11:53:33;16.10;79.50
23271;DHT22;11804;51.118;17.058;2023-03-31T11:56:02;16.20;80.20
23271;DHT22;11804;51.118;17.058;2023-03-31T11:58:56;16.30;79.00
23271;DHT22;11804;51.118;17.058;2023-03-31T12:04:22;16.30;77.30
23271;DHT22;11804;51.118;17.058;2023-03-31T12:06:49;16.30;78.30
23271;DHT22;11804;51.118;17.058;2023-03-31T12:09:37;16.20;77.80
23271;DHT22;11804;51.118;17.058;2023-03-31T12:12:21;16.30;78.20
23271;DHT22;11804;51.118;17.058;2023-03-31T12:17:36;16.20;78.20
23271;DHT22;11804;51.118;17.058;2023-03-31T12:20:13;16.10;78.70
23271;DHT22;11804;51.118;17.058;2023-03-31T12:22:46;16.10;79.00
23271;DHT22;11804;51.118;17.058;2023-03-31T12:25:15;15.90;78.00
23271;DHT22;11804;51.118;17.058;2023-03-31T12:27:45;15.60;79.30
23271;DHT22;11804;51.118;17.058;2023-03-31T12:30:27;15.40;78.70
23271;DHT22;11804;51.118;17.058;2023-03-31T12:41:30;15.60;80.20
23271;DHT22;11804;51.118;17.058;2023-03-31T12:44:05;15.60;80.30
23271;DHT22;11804;51.118;17.058;2023-03-31T12:47:02;15.40;82.20
23271;DHT22;11804;51.118;17.058;2023-03-31T12:49:36;15.60;84.00
23271;DHT22;11804;51.118;17.058;2023-03-31T12:52:07;15.70;85.70
23271;DHT22;11804;51.118;17.058;2023-03-31T12:57:27;15.80;89.20
23271;DHT22;11804;51.118;17.058;2023-03-31T13:00:14;15.70;91.20
23271;DHT22;11804;51.118;17.058;2023-03-31T13:02:42;15.60;92.20
23271;DHT22;11804;51.118;17.058;2023-03-31T13:08:10;15.60;96.30
23271;DHT22;11804;51.118;17.058;2023-03-31T13:10:53;15.60;96.80
23271;DHT22;11804;51.118;17.058;2023-03-31T13:13:20;15.60;97.10
23271;DHT22;11804;51.118;17.058;2023-03-31T13:15:53;15.50;98.90
23271;DHT22;11804;51.118;17.058;2023-03-31T13:18:22;15.60;97.00
23271;DHT22;11804;51.118;17.058;2023-03-31T13:21:05;15.40;95.90
23271;DHT22;11804;51.118;17.058;2023-03-31T13:23:35;15.30;97.00
23271;DHT22;11804;51.118;17.058;2023-03-31T13:26:04;15.20;99.20
23271;DHT22;11804;51.118;17.058;2023-03-31T13:28:42;15.00;99.90
23271;DHT22;11804;51.118;17.058;2023-03-31T13:31:12;14.90;99.90
23271;DHT22;11804;51.118;17.058;2023-03-31T13:42:35;14.50;99.90
23271;DHT22;11804;51.118;17.058;2023-03-31T13:48:09;14.50;99.90
23271;DHT22;11804;51.118;17.058;2023-03-31T13:50:43;14.50;99.90
23271;DHT22;11804;51.118;17.058;2023-03-31T14:07:20;14.40;99.90
23271;DHT22;11804;51.118;17.058;2023-03-31T14:09:51;14.30;99.90
23271;DHT22;11804;51.118;17.058;2023-03-31T14:14:53;14.10;99.90
23271;DHT22;11804;51.118;17.058;2023-03-31T14:17:23;14.10;99.90
23271;DHT22;11804;51.118;17.058;2023-03-31T14:19:57;14.00;99.90
23271;DHT22;11804;51.118;17.058;2023-03-31T14:36:52;13.90;99.90
23271;DHT22;11804;51.118;17.058;2023-03-31T14:39:23;14.00;99.90
23271;DHT22;11804;51.118;17.058;2023-03-31T14:41:53;14.00;99.90
23271;DHT22;11804;51.118;17.058;2023-03-31T14:44:22;14.00;99.90
23271;DHT22;11804;51.118;17.058;2023-03-31T14:46:51;14.00;99.90
23271;DHT22;11804;51.118;17.058;2023-03-31T14:49:37;14.00;99.90
23271;DHT22;11804;51.118;17.058;2023-03-31T14:52:14;13.80;99.90
23271;DHT22;11804;51.118;17.058;2023-03-31T14:54:46;13.80;99.90
23271;DHT22;11804;51.118;17.058;2023-03-31T14:57:17;13.80;99.90
23271;DHT22;11804;51.118;17.058;2023-03-31T14:59:49;13.90;99.90
23271;DHT22;11804;51.118;17.058;2023-03-31T15:02:22;14.10;99.90
23271;DHT22;11804;51.118;17.058;2023-03-31T15:04:49;14.20;99.90
23271;DHT22;11804;51.118;17.058;2023-03-31T15:07:18;14.40;99.90
23271;DHT22;11804;51.118;17.058;2023-03-31T15:09:48;14.40;99.90
23271;DHT22;11804;51.118;17.058;2023-03-31T15:12:18;14.50;99.90
23271;DHT22;11804;51.118;17.058;2023-03-31T15:14:53;14.50;99.90
23271;DHT22;11804;51.118;17.058;2023-03-31T15:17:24;14.50;99.90
23271;DHT22;11804;51.118;17.058;2023-03-31T15:19:59;14.40;99.90
23271;DHT22;11804;51.118;17.058;2023-03-31T15:22:25;14.40;99.90
23271;DHT22;11804;51.118;17.058;2023-03-31T15:24:54;14.20;99.90
23271;DHT22;11804;51.118;17.058;2023-03-31T15:27:29;14.10;99.90
23271;DHT22;11804;51.118;17.058;2023-03-31T15:29:54;13.90;99.90
23271;DHT22;11804;51.118;17.058;2023-03-31T15:32:28;13.80;99.90
23271;DHT22;11804;51.118;17.058;2023-03-31T15:34:57;13.70;99.90
23271;DHT22;11804;51.118;17.058;2023-03-31T15:37:29;13.70;99.90
23271;DHT22;11804;51.118;17.058;2023-03-31T15:39:59;13.70;99.90
23271;DHT22;11804;51.118;17.058;2023-03-31T15:42:31;13.70;99.90
23271;DHT22;11804;51.118;17.058;2023-03-31T15:47:51;13.60;99.90
23271;DHT22;11804;51.118;17.058;2023-03-31T15:50:22;13.50;99.90
23271;DHT22;11804;51.118;17.058;2023-03-31T15:52:52;13.50;99.90
23271;DHT22;11804;51.118;17.058;2023-03-31T15:55:29;13.50;99.90
23271;DHT22;11804;51.118;17.058;2023-03-31T15:57:59;13.40;99.90
23271;DHT22;11804;51.118;17.058;2023-03-31T16:00:47;13.40;99.90
23271;DHT22;11804;51.118;17.058;2023-03-31T16:03:28;13.40;99.90
23271;DHT22;11804;51.118;17.058;2023-03-31T16:06:02;13.40;99.90
23271;DHT22;11804;51.118;17.058;2023-03-31T16:11:08;13.40;99.90
23271;DHT22;11804;51.118;17.058;2023-03-31T16:13:39;13.30;99.90
23271;DHT22;11804;51.118;17.058;2023-03-31T16:16:11;13.30;99.90
23271;DHT22;11804;51.118;17.058;2023-03-31T16:18:47;13.10;99.90
23271;DHT22;11804;51.118;17.058;2023-03-31T16:21:27;13.00;99.90
23271;DHT22;11804;51.118;17.058;2023-03-31T16:23:54;13.00;99.90
23271;DHT22;11804;51.118;17.058;2023-03-31T16:26:23;12.90;99.90
23271;DHT22;11804;51.118;17.058;2023-03-31T16:28:54;12.80;99.90
23271;DHT22;11804;51.118;17.058;2023-03-31T16:31:29;12.80;99.90
23271;DHT22;11804;51.118;17.058;2023-03-31T16:33:58;12.80;99.90
23271;DHT22;11804;51.118;17.058;2023-03-31T16:36:26;12.80;99.90
23271;DHT22;11804;51.118;17.058;2023-03-31T16:38:55;12.90;99.90
23271;DHT22;11804;51.118;17.058;2023-03-31T16:41:24;12.90;99.90
23271;DHT22;11804;51.118;17.058;2023-03-31T16:43:53;12.90;99.90
23271;DHT22;11804;51.118;17.058;2023-03-31T16:46:22;12.90;99.90
23271;DHT22;11804;51.118;17.058;2023-03-31T16:48:54;12.90;99.90
23271;DHT22;11804;51.118;17.058;2023-03-31T16:51:21;12.90;99.90
23271;DHT22;11804;51.118;17.058;2023-03-31T16:53:49;13.00;99.90
23271;DHT22;11804;51.118;17.058;2023-03-31T16:56:20;13.00;99.90
23271;DHT22;11804;51.118;17.058;2023-03-31T16:58:47;13.00;99.90
23271;DHT22;11804;51.118;17.058;2023-03-31T17:01:16;13.00;99.90
23271;DHT22;11804;51.118;17.058;2023-03-31T17:03:46;13.00;99.90
23271;DHT22;11804;51.118;17.058;2023-03-31T17:06:14;13.00;99.90
23271;DHT22;11804;51.118;17.058;2023-03-31T17:08:42;12.90;99.90
23271;DHT22;11804;51.118;17.058;2023-03-31T17:11:11;12.90;99.90
23271;DHT22;11804;51.118;17.058;2023-03-31T17:13:41;12.80;99.90
23271;DHT22;11804;51.118;17.058;2023-03-31T17:16:11;12.70;99.90
23271;DHT22;11804;51.118;17.058;2023-03-31T17:18:39;12.70;99.90
23271;DHT22;11804;51.118;17.058;2023-03-31T17:21:12;12.70;99.90
23271;DHT22;11804;51.118;17.058;2023-03-31T17:23:40;12.70;99.90
23271;DHT22;11804;51.118;17.058;2023-03-31T17:26:09;12.70;99.90
23271;DHT22;11804;51.118;17.058;2023-03-31T17:28:39;12.70;99.90
23271;DHT22;11804;51.118;17.058;2023-03-31T17:31:12;12.70;99.90
23271;DHT22;11804;51.118;17.058;2023-03-31T17:33:41;12.70;99.90
23271;DHT22;11804;51.118;17.058;2023-03-31T17:36:10;12.70;99.90
23271;DHT22;11804;51.118;17.058;2023-03-31T17:38:38;12.70;99.90
23271;DHT22;11804;51.118;17.058;2023-03-31T17:41:07;12.60;99.90
23271;DHT22;11804;51.118;17.058;2023-03-31T17:43:42;12.70;99.90
23271;DHT22;11804;51.118;17.058;2023-03-31T17:46:09;12.60;99.90
23271;DHT22;11804;51.118;17.058;2023-03-31T17:48:38;12.60;99.90
23271;DHT22;11804;51.118;17.058;2023-03-31T17:51:09;12.60;99.90
23271;DHT22;11804;51.118;17.058;2023-03-31T17:53:39;12.60;99.90
23271;DHT22;11804;51.118;17.058;2023-03-31T17:56:07;12.60;99.90
23271;DHT22;11804;51.118;17.058;2023-03-31T17:58:35;12.70;99.90
23271;DHT22;11804;51.118;17.058;2023-03-31T18:01:05;12.70;99.90
23271;DHT22;11804;51.118;17.058;2023-03-31T18:03:33;12.70;99.90
23271;DHT22;11804;51.118;17.058;2023-03-31T18:06:06;12.70;99.90
23271;DHT22;11804;51.118;17.058;2023-03-31T18:08:35;12.60;99.90
23271;DHT22;11804;51.118;17.058;2023-03-31T18:11:05;12.60;99.90
23271;DHT22;11804;51.118;17.058;2023-03-31T18:13:35;12.60;99.90
23271;DHT22;11804;51.118;17.058;2023-03-31T18:16:05;12.50;99.90
23271;DHT22;11804;51.118;17.058;2023-03-31T18:18:35;12.50;99.90